sensor_id;sensor_type;location;lat;lon;timestamp;P1;durP1;ratioP1;P2;durP2;ratioP2
25982;SDS011;13773;48.868;10.730;2023-08-30T00:01:49;29.60;;;26.53;;
25982;SDS011;13773;48.868;10.730;2023-08-30T00:04:15;28.53;;;25.60;;
25982;SDS011;13773;48.868;10.730;2023-08-30T00:06:40;29.63;;;26.57;;
25982;SDS011;13773;48.868;10.730;2023-08-30T00:09:06;30.40;;;25.97;;
25982;SDS011;13773;48.868;10.730;2023-08-30T00:11:32;29.43;;;26.37;;
25982;SDS011;13773;48.868;10.730;2023-08-30T00:14:04;28.57;;;25.67;;
25982;SDS011;13773;48.868;10.730;2023-08-30T00:16:31;31.50;;;28.33;;
25982;SDS011;13773;48.868;10.730;2023-08-30T00:18:57;31.50;;;28.30;;
25982;SDS011;13773;48.868;10.730;2023-08-30T00:21:23;31.27;;;27.93;;
25982;SDS011;13773;48.868;10.730;2023-08-30T00:23:48;31.83;;;28.57;;
25982;SDS011;13773;48.868;10.730;2023-08-30T00:26:14;32.00;;;28.73;;
25982;SDS011;13773;48.868;10.730;2023-08-30T00:28:40;34.13;;;30.50;;
25982;SDS011;13773;48.868;10.730;2023-08-30T00:31:05;35.37;;;31.27;;
25982;SDS011;13773;48.868;10.730;2023-08-30T00:33:31;35.60;;;30.47;;
25982;SDS011;13773;48.868;10.730;2023-08-30T00:35:57;35.53;;;31.10;;
25982;SDS011;13773;48.868;10.730;2023-08-30T00:38:25;35.23;;;31.03;;
25982;SDS011;13773;48.868;10.730;2023-08-30T00:40:52;39.87;;;31.90;;
25982;SDS011;13773;48.868;10.730;2023-08-30T00:43:18;38.10;;;32.23;;
25982;SDS011;13773;48.868;10.730;2023-08-30T00:45:47;39.73;;;33.87;;
25982;SDS011;13773;48.868;10.730;2023-08-30T00:48:14;43.30;;;34.07;;
25982;SDS011;13773;48.868;10.730;2023-08-30T00:50:41;39.93;;;34.67;;
25982;SDS011;13773;48.868;10.730;2023-08-30T00:53:08;44.00;;;33.47;;
25982;SDS011;13773;48.868;10.730;2023-08-30T00:55:35;41.43;;;34.80;;
25982;SDS011;13773;48.868;10.730;2023-08-30T00:58:02;40.33;;;33.47;;
25982;SDS011;13773;48.868;10.730;2023-08-30T01:00:28;43.07;;;35.67;;
25982;SDS011;13773;48.868;10.730;2023-08-30T01:02:55;41.00;;;34.87;;
25982;SDS011;13773;48.868;10.730;2023-08-30T01:05:21;44.07;;;35.97;;
25982;SDS011;13773;48.868;10.730;2023-08-30T01:07:48;42.97;;;34.70;;
25982;SDS011;13773;48.868;10.730;2023-08-30T01:10:17;43.60;;;34.67;;
25982;SDS011;13773;48.868;10.730;2023-08-30T01:12:47;42.30;;;34.97;;
25982;SDS011;13773;48.868;10.730;2023-08-30T01:15:20;39.87;;;34.57;;
25982;SDS011;13773;48.868;10.730;2023-08-30T01:17:48;48.47;;;36.20;;
25982;SDS011;13773;48.868;10.730;2023-08-30T01:20:16;44.67;;;35.00;;
25982;SDS011;13773;48.868;10.730;2023-08-30T01:28:18;44.60;;;35.47;;
25982;SDS011;13773;48.868;10.730;2023-08-30T01:30:47;47.67;;;37.83;;
25982;SDS011;13773;48.868;10.730;2023-08-30T01:33:14;46.07;;;37.10;;
25982;SDS011;13773;48.868;10.730;2023-08-30T01:35:42;43.23;;;35.07;;
25982;SDS011;13773;48.868;10.730;2023-08-30T01:38:09;43.30;;;36.07;;
25982;SDS011;13773;48.868;10.730;2023-08-30T01:40:36;44.87;;;35.13;;
25982;SDS011;13773;48.868;10.730;2023-08-30T01:43:05;44.37;;;35.97;;
25982;SDS011;13773;48.868;10.730;2023-08-30T01:45:35;45.63;;;36.87;;
25982;SDS011;13773;48.868;10.730;2023-08-30T01:48:04;48.27;;;37.67;;
25982;SDS011;13773;48.868;10.730;2023-08-30T01:50:34;46.53;;;36.37;;
25982;SDS011;13773;48.868;10.730;2023-08-30T01:53:00;44.97;;;36.73;;
25982;SDS011;13773;48.868;10.730;2023-08-30T01:55:28;48.03;;;38.73;;
25982;SDS011;13773;48.868;10.730;2023-08-30T01:57:54;46.57;;;37.73;;
25982;SDS011;13773;48.868;10.730;2023-08-30T02:00:20;44.57;;;35.60;;
25982;SDS011;13773;48.868;10.730;2023-08-30T02:02:47;49.40;;;37.50;;
25982;SDS011;13773;48.868;10.730;2023-08-30T02:05:13;42.00;;;34.93;;
25982;SDS011;13773;48.868;10.730;2023-08-30T02:07:58;47.93;;;37.67;;
25982;SDS011;13773;48.868;10.730;2023-08-30T02:10:34;42.80;;;34.67;;
25982;SDS011;13773;48.868;10.730;2023-08-30T02:13:01;46.50;;;36.37;;
25982;SDS011;13773;48.868;10.730;2023-08-30T02:15:29;48.17;;;37.67;;
25982;SDS011;13773;48.868;10.730;2023-08-30T02:17:57;46.00;;;36.30;;
25982;SDS011;13773;48.868;10.730;2023-08-30T02:20:23;46.20;;;36.80;;
25982;SDS011;13773;48.868;10.730;2023-08-30T02:22:49;42.63;;;35.57;;
25982;SDS011;13773;48.868;10.730;2023-08-30T02:25:15;44.03;;;36.27;;
25982;SDS011;13773;48.868;10.730;2023-08-30T02:27:41;43.27;;;35.80;;
25982;SDS011;13773;48.868;10.730;2023-08-30T02:30:07;44.63;;;35.30;;
25982;SDS011;13773;48.868;10.730;2023-08-30T02:32:33;46.37;;;36.50;;
25982;SDS011;13773;48.868;10.730;2023-08-30T02:34:59;44.70;;;34.87;;
25982;SDS011;13773;48.868;10.730;2023-08-30T02:37:25;45.53;;;35.77;;
25982;SDS011;13773;48.868;10.730;2023-08-30T02:39:50;44.57;;;35.93;;
25982;SDS011;13773;48.868;10.730;2023-08-30T02:42:16;42.23;;;34.17;;
25982;SDS011;13773;48.868;10.730;2023-08-30T02:44:42;45.43;;;35.00;;
25982;SDS011;13773;48.868;10.730;2023-08-30T02:47:07;47.80;;;36.93;;
25982;SDS011;13773;48.868;10.730;2023-08-30T02:49:33;45.03;;;35.03;;
25982;SDS011;13773;48.868;10.730;2023-08-30T02:51:59;46.97;;;37.13;;
25982;SDS011;13773;48.868;10.730;2023-08-30T02:54:25;46.23;;;36.67;;
25982;SDS011;13773;48.868;10.730;2023-08-30T02:56:50;52.13;;;39.13;;
25982;SDS011;13773;48.868;10.730;2023-08-30T02:59:16;49.20;;;38.07;;
25982;SDS011;13773;48.868;10.730;2023-08-30T03:01:42;47.13;;;36.33;;
25982;SDS011;13773;48.868;10.730;2023-08-30T03:04:08;44.10;;;35.17;;
25982;SDS011;13773;48.868;10.730;2023-08-30T03:06:34;50.23;;;39.00;;
25982;SDS011;13773;48.868;10.730;2023-08-30T03:09:00;53.43;;;38.00;;
25982;SDS011;13773;48.868;10.730;2023-08-30T03:11:26;53.80;;;38.77;;
25982;SDS011;13773;48.868;10.730;2023-08-30T03:13:53;52.40;;;38.80;;
25982;SDS011;13773;48.868;10.730;2023-08-30T03:16:19;53.53;;;40.70;;
25982;SDS011;13773;48.868;10.730;2023-08-30T03:18:45;57.00;;;40.37;;
25982;SDS011;13773;48.868;10.730;2023-08-30T03:21:11;51.53;;;39.77;;
25982;SDS011;13773;48.868;10.730;2023-08-30T03:23:37;51.07;;;39.37;;
25982;SDS011;13773;48.868;10.730;2023-08-30T03:26:10;54.77;;;40.80;;
25982;SDS011;13773;48.868;10.730;2023-08-30T03:28:37;56.10;;;41.50;;
25982;SDS011;13773;48.868;10.730;2023-08-30T03:31:17;54.43;;;39.60;;
25982;SDS011;13773;48.868;10.730;2023-08-30T03:33:43;57.10;;;40.67;;
25982;SDS011;13773;48.868;10.730;2023-08-30T03:36:10;51.93;;;38.90;;
25982;SDS011;13773;48.868;10.730;2023-08-30T03:38:36;58.70;;;41.60;;
25982;SDS011;13773;48.868;10.730;2023-08-30T03:41:03;55.33;;;39.97;;
25982;SDS011;13773;48.868;10.730;2023-08-30T03:43:29;56.13;;;40.20;;
25982;SDS011;13773;48.868;10.730;2023-08-30T03:45:55;51.90;;;38.17;;
25982;SDS011;13773;48.868;10.730;2023-08-30T03:48:21;54.83;;;38.30;;
25982;SDS011;13773;48.868;10.730;2023-08-30T03:50:47;51.13;;;37.90;;
25982;SDS011;13773;48.868;10.730;2023-08-30T03:53:13;51.30;;;37.57;;
25982;SDS011;13773;48.868;10.730;2023-08-30T03:55:38;48.13;;;35.97;;
25982;SDS011;13773;48.868;10.730;2023-08-30T03:58:05;49.93;;;37.17;;
25982;SDS011;13773;48.868;10.730;2023-08-30T04:00:31;47.63;;;35.40;;
25982;SDS011;13773;48.868;10.730;2023-08-30T04:02:56;46.30;;;36.03;;
25982;SDS011;13773;48.868;10.730;2023-08-30T04:05:22;45.47;;;34.70;;
25982;SDS011;13773;48.868;10.730;2023-08-30T04:07:48;47.30;;;35.73;;
25982;SDS011;13773;48.868;10.730;2023-08-30T04:10:13;48.27;;;36.73;;
25982;SDS011;13773;48.868;10.730;2023-08-30T04:12:39;45.17;;;33.87;;
25982;SDS011;13773;48.868;10.730;2023-08-30T04:15:05;43.17;;;33.60;;
25982;SDS011;13773;48.868;10.730;2023-08-30T04:17:31;41.53;;;33.77;;
25982;SDS011;13773;48.868;10.730;2023-08-30T04:19:56;44.40;;;33.47;;
25982;SDS011;13773;48.868;10.730;2023-08-30T04:22:22;46.37;;;35.57;;
25982;SDS011;13773;48.868;10.730;2023-08-30T04:24:48;45.53;;;34.53;;
25982;SDS011;13773;48.868;10.730;2023-08-30T04:27:14;44.77;;;35.13;;
25982;SDS011;13773;48.868;10.730;2023-08-30T04:29:39;43.83;;;34.07;;
25982;SDS011;13773;48.868;10.730;2023-08-30T04:32:05;45.07;;;34.40;;
25982;SDS011;13773;48.868;10.730;2023-08-30T04:34:32;45.97;;;35.50;;
25982;SDS011;13773;48.868;10.730;2023-08-30T04:36:57;47.07;;;35.93;;
25982;SDS011;13773;48.868;10.730;2023-08-30T04:39:23;42.27;;;32.80;;
25982;SDS011;13773;48.868;10.730;2023-08-30T04:41:49;43.30;;;34.03;;
25982;SDS011;13773;48.868;10.730;2023-08-30T04:44:14;44.63;;;35.13;;
25982;SDS011;13773;48.868;10.730;2023-08-30T04:46:41;43.40;;;34.00;;
25982;SDS011;13773;48.868;10.730;2023-08-30T04:49:06;45.70;;;34.67;;
25982;SDS011;13773;48.868;10.730;2023-08-30T04:51:32;42.97;;;32.87;;
25982;SDS011;13773;48.868;10.730;2023-08-30T04:53:58;39.97;;;31.73;;
25982;SDS011;13773;48.868;10.730;2023-08-30T04:56:23;43.37;;;33.33;;
25982;SDS011;13773;48.868;10.730;2023-08-30T04:58:49;41.67;;;33.63;;
25982;SDS011;13773;48.868;10.730;2023-08-30T05:01:15;37.80;;;32.10;;
25982;SDS011;13773;48.868;10.730;2023-08-30T05:03:41;38.87;;;33.27;;
25982;SDS011;13773;48.868;10.730;2023-08-30T05:06:07;40.67;;;32.63;;
25982;SDS011;13773;48.868;10.730;2023-08-30T05:08:33;41.53;;;33.37;;
25982;SDS011;13773;48.868;10.730;2023-08-30T05:10:59;42.37;;;31.87;;
25982;SDS011;13773;48.868;10.730;2023-08-30T05:13:24;40.53;;;33.50;;
25982;SDS011;13773;48.868;10.730;2023-08-30T05:15:50;40.03;;;32.73;;
25982;SDS011;13773;48.868;10.730;2023-08-30T05:18:16;37.60;;;33.40;;
25982;SDS011;13773;48.868;10.730;2023-08-30T05:20:43;38.57;;;31.83;;
25982;SDS011;13773;48.868;10.730;2023-08-30T05:23:09;40.43;;;33.33;;
25982;SDS011;13773;48.868;10.730;2023-08-30T05:25:35;39.33;;;32.40;;
25982;SDS011;13773;48.868;10.730;2023-08-30T05:28:00;40.40;;;32.40;;
25982;SDS011;13773;48.868;10.730;2023-08-30T05:30:26;38.20;;;30.10;;
25982;SDS011;13773;48.868;10.730;2023-08-30T05:32:51;39.30;;;32.23;;
25982;SDS011;13773;48.868;10.730;2023-08-30T05:35:18;40.57;;;31.97;;
25982;SDS011;13773;48.868;10.730;2023-08-30T05:37:43;37.43;;;33.33;;
25982;SDS011;13773;48.868;10.730;2023-08-30T05:40:09;36.40;;;30.47;;
25982;SDS011;13773;48.868;10.730;2023-08-30T05:42:35;32.13;;;28.70;;
25982;SDS011;13773;48.868;10.730;2023-08-30T05:45:01;32.97;;;29.47;;
25982;SDS011;13773;48.868;10.730;2023-08-30T05:47:27;33.90;;;30.40;;
25982;SDS011;13773;48.868;10.730;2023-08-30T05:49:53;32.43;;;28.73;;
25982;SDS011;13773;48.868;10.730;2023-08-30T05:52:19;31.53;;;28.23;;
25982;SDS011;13773;48.868;10.730;2023-08-30T05:54:44;30.77;;;27.53;;
25982;SDS011;13773;48.868;10.730;2023-08-30T05:57:10;30.40;;;27.30;;
25982;SDS011;13773;48.868;10.730;2023-08-30T05:59:36;29.63;;;26.60;;
25982;SDS011;13773;48.868;10.730;2023-08-30T06:02:02;28.40;;;25.57;;
25982;SDS011;13773;48.868;10.730;2023-08-30T06:04:28;28.43;;;25.47;;
25982;SDS011;13773;48.868;10.730;2023-08-30T06:06:54;28.87;;;25.73;;
25982;SDS011;13773;48.868;10.730;2023-08-30T06:09:19;28.13;;;25.33;;
25982;SDS011;13773;48.868;10.730;2023-08-30T06:11:45;27.37;;;24.67;;
25982;SDS011;13773;48.868;10.730;2023-08-30T06:14:11;28.33;;;25.50;;
25982;SDS011;13773;48.868;10.730;2023-08-30T06:16:36;28.10;;;25.20;;
25982;SDS011;13773;48.868;10.730;2023-08-30T06:19:02;28.50;;;25.60;;
25982;SDS011;13773;48.868;10.730;2023-08-30T06:21:28;28.67;;;25.77;;
25982;SDS011;13773;48.868;10.730;2023-08-30T06:23:54;26.87;;;23.87;;
25982;SDS011;13773;48.868;10.730;2023-08-30T06:26:20;25.43;;;22.83;;
25982;SDS011;13773;48.868;10.730;2023-08-30T06:28:46;24.80;;;22.50;;
25982;SDS011;13773;48.868;10.730;2023-08-30T06:31:11;25.90;;;23.30;;
25982;SDS011;13773;48.868;10.730;2023-08-30T06:33:37;25.57;;;23.07;;
25982;SDS011;13773;48.868;10.730;2023-08-30T06:36:04;24.87;;;22.47;;
25982;SDS011;13773;48.868;10.730;2023-08-30T06:38:30;24.10;;;21.87;;
25982;SDS011;13773;48.868;10.730;2023-08-30T06:40:57;23.90;;;21.53;;
25982;SDS011;13773;48.868;10.730;2023-08-30T06:43:23;22.40;;;20.17;;
25982;SDS011;13773;48.868;10.730;2023-08-30T06:45:49;20.13;;;18.43;;
25982;SDS011;13773;48.868;10.730;2023-08-30T06:48:15;22.63;;;20.67;;
25982;SDS011;13773;48.868;10.730;2023-08-30T06:50:40;22.53;;;20.47;;
25982;SDS011;13773;48.868;10.730;2023-08-30T06:53:06;19.67;;;17.87;;
25982;SDS011;13773;48.868;10.730;2023-08-30T06:55:32;21.10;;;19.07;;
25982;SDS011;13773;48.868;10.730;2023-08-30T06:57:58;20.83;;;18.97;;
25982;SDS011;13773;48.868;10.730;2023-08-30T07:00:24;21.77;;;19.57;;
25982;SDS011;13773;48.868;10.730;2023-08-30T07:02:50;21.37;;;19.50;;
25982;SDS011;13773;48.868;10.730;2023-08-30T07:05:15;18.97;;;17.17;;
25982;SDS011;13773;48.868;10.730;2023-08-30T07:07:41;19.87;;;18.27;;
25982;SDS011;13773;48.868;10.730;2023-08-30T07:10:07;17.03;;;15.57;;
25982;SDS011;13773;48.868;10.730;2023-08-30T07:12:34;16.90;;;15.47;;
25982;SDS011;13773;48.868;10.730;2023-08-30T07:14:59;16.10;;;14.70;;
25982;SDS011;13773;48.868;10.730;2023-08-30T07:17:25;15.47;;;14.27;;
25982;SDS011;13773;48.868;10.730;2023-08-30T07:19:51;14.77;;;13.57;;
25982;SDS011;13773;48.868;10.730;2023-08-30T07:22:16;14.20;;;12.90;;
25982;SDS011;13773;48.868;10.730;2023-08-30T07:24:42;13.70;;;12.37;;
25982;SDS011;13773;48.868;10.730;2023-08-30T07:27:09;12.57;;;11.50;;
25982;SDS011;13773;48.868;10.730;2023-08-30T07:29:36;12.77;;;11.73;;
25982;SDS011;13773;48.868;10.730;2023-08-30T07:32:01;12.63;;;11.53;;
25982;SDS011;13773;48.868;10.730;2023-08-30T07:34:27;11.70;;;10.70;;
25982;SDS011;13773;48.868;10.730;2023-08-30T07:36:53;11.93;;;10.83;;
25982;SDS011;13773;48.868;10.730;2023-08-30T07:39:21;10.80;;;10.00;;
25982;SDS011;13773;48.868;10.730;2023-08-30T07:41:46;11.47;;;10.47;;
25982;SDS011;13773;48.868;10.730;2023-08-30T07:44:12;10.97;;;10.17;;
25982;SDS011;13773;48.868;10.730;2023-08-30T07:46:37;10.43;;;9.57;;
25982;SDS011;13773;48.868;10.730;2023-08-30T07:49:03;10.97;;;10.13;;
25982;SDS011;13773;48.868;10.730;2023-08-30T07:51:29;12.07;;;9.90;;
25982;SDS011;13773;48.868;10.730;2023-08-30T07:53:55;12.03;;;11.03;;
25982;SDS011;13773;48.868;10.730;2023-08-30T07:56:20;10.47;;;9.57;;
25982;SDS011;13773;48.868;10.730;2023-08-30T07:58:46;11.53;;;10.40;;
25982;SDS011;13773;48.868;10.730;2023-08-30T08:01:12;10.73;;;9.93;;
25982;SDS011;13773;48.868;10.730;2023-08-30T08:03:38;11.27;;;10.37;;
25982;SDS011;13773;48.868;10.730;2023-08-30T08:06:05;11.27;;;10.30;;
25982;SDS011;13773;48.868;10.730;2023-08-30T08:08:31;10.73;;;9.93;;
25982;SDS011;13773;48.868;10.730;2023-08-30T08:10:58;10.87;;;10.07;;
25982;SDS011;13773;48.868;10.730;2023-08-30T08:13:24;11.77;;;10.77;;
25982;SDS011;13773;48.868;10.730;2023-08-30T08:15:50;11.27;;;10.27;;
25982;SDS011;13773;48.868;10.730;2023-08-30T08:18:16;10.27;;;9.47;;
25982;SDS011;13773;48.868;10.730;2023-08-30T08:20:42;10.87;;;9.97;;
25982;SDS011;13773;48.868;10.730;2023-08-30T08:23:08;12.73;;;11.60;;
25982;SDS011;13773;48.868;10.730;2023-08-30T08:25:34;12.03;;;11.13;;
25982;SDS011;13773;48.868;10.730;2023-08-30T08:27:59;13.00;;;12.00;;
25982;SDS011;13773;48.868;10.730;2023-08-30T08:30:25;12.13;;;11.13;;
25982;SDS011;13773;48.868;10.730;2023-08-30T08:32:51;11.70;;;10.70;;
25982;SDS011;13773;48.868;10.730;2023-08-30T08:35:16;11.57;;;10.57;;
25982;SDS011;13773;48.868;10.730;2023-08-30T08:37:42;11.93;;;11.00;;
25982;SDS011;13773;48.868;10.730;2023-08-30T08:40:08;11.83;;;10.63;;
25982;SDS011;13773;48.868;10.730;2023-08-30T08:42:35;12.00;;;11.03;;
25982;SDS011;13773;48.868;10.730;2023-08-30T08:45:04;11.83;;;10.90;;
25982;SDS011;13773;48.868;10.730;2023-08-30T08:47:30;11.50;;;10.50;;
25982;SDS011;13773;48.868;10.730;2023-08-30T08:49:56;11.07;;;10.17;;
25982;SDS011;13773;48.868;10.730;2023-08-30T08:52:23;11.03;;;10.13;;
25982;SDS011;13773;48.868;10.730;2023-08-30T08:54:49;11.40;;;10.50;;
25982;SDS011;13773;48.868;10.730;2023-08-30T08:57:16;11.67;;;10.60;;
25982;SDS011;13773;48.868;10.730;2023-08-30T08:59:43;10.43;;;9.57;;
25982;SDS011;13773;48.868;10.730;2023-08-30T09:02:10;11.23;;;10.23;;
25982;SDS011;13773;48.868;10.730;2023-08-30T09:04:38;10.27;;;9.47;;
25982;SDS011;13773;48.868;10.730;2023-08-30T09:07:04;9.30;;;8.60;;
25982;SDS011;13773;48.868;10.730;2023-08-30T09:09:30;9.60;;;8.70;;
25982;SDS011;13773;48.868;10.730;2023-08-30T09:11:56;8.97;;;8.27;;
25982;SDS011;13773;48.868;10.730;2023-08-30T09:14:22;8.53;;;7.73;;
25982;SDS011;13773;48.868;10.730;2023-08-30T09:16:54;8.53;;;7.73;;
25982;SDS011;13773;48.868;10.730;2023-08-30T09:19:25;7.63;;;7.03;;
25982;SDS011;13773;48.868;10.730;2023-08-30T09:21:54;6.77;;;6.17;;
25982;SDS011;13773;48.868;10.730;2023-08-30T09:24:21;8.57;;;7.97;;
25982;SDS011;13773;48.868;10.730;2023-08-30T09:26:48;8.30;;;7.50;;
25982;SDS011;13773;48.868;10.730;2023-08-30T09:29:16;8.20;;;7.60;;
25982;SDS011;13773;48.868;10.730;2023-08-30T09:31:42;7.50;;;6.90;;
25982;SDS011;13773;48.868;10.730;2023-08-30T09:34:08;7.67;;;7.00;;
25982;SDS011;13773;48.868;10.730;2023-08-30T09:36:36;8.07;;;7.33;;
25982;SDS011;13773;48.868;10.730;2023-08-30T09:39:13;6.53;;;5.93;;
25982;SDS011;13773;48.868;10.730;2023-08-30T09:41:43;7.17;;;6.57;;
25982;SDS011;13773;48.868;10.730;2023-08-30T09:44:13;7.47;;;6.87;;
25982;SDS011;13773;48.868;10.730;2023-08-30T09:46:40;7.30;;;6.70;;
25982;SDS011;13773;48.868;10.730;2023-08-30T09:49:10;7.93;;;7.23;;
25982;SDS011;13773;48.868;10.730;2023-08-30T09:51:40;7.80;;;7.10;;
25982;SDS011;13773;48.868;10.730;2023-08-30T09:54:10;8.07;;;7.47;;
25982;SDS011;13773;48.868;10.730;2023-08-30T09:56:43;6.97;;;6.47;;
25982;SDS011;13773;48.868;10.730;2023-08-30T09:59:14;6.93;;;6.33;;
25982;SDS011;13773;48.868;10.730;2023-08-30T10:01:40;7.27;;;6.20;;
25982;SDS011;13773;48.868;10.730;2023-08-30T10:04:07;7.17;;;6.57;;
25982;SDS011;13773;48.868;10.730;2023-08-30T10:06:36;7.27;;;6.57;;
25982;SDS011;13773;48.868;10.730;2023-08-30T10:09:03;6.70;;;6.10;;
25982;SDS011;13773;48.868;10.730;2023-08-30T10:11:33;6.97;;;6.40;;
25982;SDS011;13773;48.868;10.730;2023-08-30T10:14:02;6.50;;;5.93;;
25982;SDS011;13773;48.868;10.730;2023-08-30T10:16:30;5.77;;;5.33;;
25982;SDS011;13773;48.868;10.730;2023-08-30T10:19:03;5.07;;;4.77;;
25982;SDS011;13773;48.868;10.730;2023-08-30T10:21:38;7.00;;;5.47;;
25982;SDS011;13773;48.868;10.730;2023-08-30T10:24:05;5.67;;;5.17;;
25982;SDS011;13773;48.868;10.730;2023-08-30T10:26:33;5.37;;;4.90;;
25982;SDS011;13773;48.868;10.730;2023-08-30T10:29:00;5.80;;;5.40;;
25982;SDS011;13773;48.868;10.730;2023-08-30T10:31:28;6.03;;;5.53;;
25982;SDS011;13773;48.868;10.730;2023-08-30T10:33:54;6.80;;;6.20;;
25982;SDS011;13773;48.868;10.730;2023-08-30T10:36:23;5.63;;;5.23;;
25982;SDS011;13773;48.868;10.730;2023-08-30T10:38:50;5.60;;;5.10;;
25982;SDS011;13773;48.868;10.730;2023-08-30T10:41:20;6.03;;;5.47;;
25982;SDS011;13773;48.868;10.730;2023-08-30T10:43:51;6.20;;;5.63;;
25982;SDS011;13773;48.868;10.730;2023-08-30T10:46:33;6.23;;;5.73;;
25982;SDS011;13773;48.868;10.730;2023-08-30T10:49:11;5.97;;;5.50;;
25982;SDS011;13773;48.868;10.730;2023-08-30T10:51:40;5.67;;;5.27;;
25982;SDS011;13773;48.868;10.730;2023-08-30T10:54:24;5.10;;;4.70;;
25982;SDS011;13773;48.868;10.730;2023-08-30T10:56:56;5.03;;;4.47;;
25982;SDS011;13773;48.868;10.730;2023-08-30T10:59:26;4.63;;;4.33;;
25982;SDS011;13773;48.868;10.730;2023-08-30T11:01:54;5.27;;;4.87;;
25982;SDS011;13773;48.868;10.730;2023-08-30T11:04:21;5.67;;;5.17;;
25982;SDS011;13773;48.868;10.730;2023-08-30T11:06:48;5.23;;;4.80;;
25982;SDS011;13773;48.868;10.730;2023-08-30T11:09:19;5.33;;;4.83;;
25982;SDS011;13773;48.868;10.730;2023-08-30T11:11:46;4.50;;;4.20;;
25982;SDS011;13773;48.868;10.730;2023-08-30T11:14:12;4.53;;;4.13;;
25982;SDS011;13773;48.868;10.730;2023-08-30T11:16:39;4.27;;;3.90;;
25982;SDS011;13773;48.868;10.730;2023-08-30T11:19:05;4.63;;;3.93;;
25982;SDS011;13773;48.868;10.730;2023-08-30T11:21:33;4.60;;;4.20;;
25982;SDS011;13773;48.868;10.730;2023-08-30T11:24:00;4.70;;;4.30;;
25982;SDS011;13773;48.868;10.730;2023-08-30T11:26:25;4.63;;;4.23;;
25982;SDS011;13773;48.868;10.730;2023-08-30T11:28:51;4.83;;;4.43;;
25982;SDS011;13773;48.868;10.730;2023-08-30T11:31:21;5.27;;;4.77;;
25982;SDS011;13773;48.868;10.730;2023-08-30T11:33:51;5.37;;;4.97;;
25982;SDS011;13773;48.868;10.730;2023-08-30T11:36:23;5.97;;;4.90;;
25982;SDS011;13773;48.868;10.730;2023-08-30T11:38:52;5.87;;;5.33;;
25982;SDS011;13773;48.868;10.730;2023-08-30T11:41:21;6.07;;;5.67;;
25982;SDS011;13773;48.868;10.730;2023-08-30T11:43:48;7.00;;;6.30;;
25982;SDS011;13773;48.868;10.730;2023-08-30T11:46:15;6.57;;;5.90;;
25982;SDS011;13773;48.868;10.730;2023-08-30T11:48:42;10.83;;;6.63;;
25982;SDS011;13773;48.868;10.730;2023-08-30T11:51:09;6.07;;;5.57;;
25982;SDS011;13773;48.868;10.730;2023-08-30T11:53:36;5.80;;;5.27;;
25982;SDS011;13773;48.868;10.730;2023-08-30T11:56:03;5.47;;;4.93;;
25982;SDS011;13773;48.868;10.730;2023-08-30T11:58:36;6.23;;;5.73;;
25982;SDS011;13773;48.868;10.730;2023-08-30T12:01:02;6.17;;;5.77;;
25982;SDS011;13773;48.868;10.730;2023-08-30T12:03:29;6.17;;;5.67;;
25982;SDS011;13773;48.868;10.730;2023-08-30T12:05:55;6.00;;;5.50;;
25982;SDS011;13773;48.868;10.730;2023-08-30T12:08:25;6.90;;;6.30;;
25982;SDS011;13773;48.868;10.730;2023-08-30T12:10:53;6.80;;;6.30;;
25982;SDS011;13773;48.868;10.730;2023-08-30T12:13:26;5.17;;;4.77;;
25982;SDS011;13773;48.868;10.730;2023-08-30T12:15:53;4.80;;;4.20;;
25982;SDS011;13773;48.868;10.730;2023-08-30T12:18:23;4.80;;;4.40;;
25982;SDS011;13773;48.868;10.730;2023-08-30T12:20:55;3.07;;;2.87;;
25982;SDS011;13773;48.868;10.730;2023-08-30T12:23:26;2.80;;;2.60;;
25982;SDS011;13773;48.868;10.730;2023-08-30T12:25:59;3.20;;;2.30;;
25982;SDS011;13773;48.868;10.730;2023-08-30T12:28:31;2.80;;;2.60;;
25982;SDS011;13773;48.868;10.730;2023-08-30T12:30:58;2.90;;;2.20;;
25982;SDS011;13773;48.868;10.730;2023-08-30T12:33:24;2.10;;;1.90;;
25982;SDS011;13773;48.868;10.730;2023-08-30T12:35:53;2.87;;;2.40;;
25982;SDS011;13773;48.868;10.730;2023-08-30T12:38:20;4.83;;;2.37;;
25982;SDS011;13773;48.868;10.730;2023-08-30T12:40:50;2.30;;;2.10;;
25982;SDS011;13773;48.868;10.730;2023-08-30T12:43:16;2.77;;;2.13;;
25982;SDS011;13773;48.868;10.730;2023-08-30T12:45:43;2.30;;;2.10;;
25982;SDS011;13773;48.868;10.730;2023-08-30T12:48:13;2.60;;;2.40;;
25982;SDS011;13773;48.868;10.730;2023-08-30T12:50:40;2.80;;;2.60;;
25982;SDS011;13773;48.868;10.730;2023-08-30T12:53:07;2.90;;;2.70;;
25982;SDS011;13773;48.868;10.730;2023-08-30T12:55:34;3.20;;;2.80;;
25982;SDS011;13773;48.868;10.730;2023-08-30T12:58:00;2.63;;;2.43;;
25982;SDS011;13773;48.868;10.730;2023-08-30T13:00:26;4.03;;;2.80;;
25982;SDS011;13773;48.868;10.730;2023-08-30T13:02:52;3.60;;;2.60;;
25982;SDS011;13773;48.868;10.730;2023-08-30T13:05:18;4.30;;;2.83;;
25982;SDS011;13773;48.868;10.730;2023-08-30T13:07:44;3.83;;;3.20;;
25982;SDS011;13773;48.868;10.730;2023-08-30T13:10:10;3.60;;;3.30;;
25982;SDS011;13773;48.868;10.730;2023-08-30T13:12:35;3.60;;;3.30;;
25982;SDS011;13773;48.868;10.730;2023-08-30T13:15:02;4.20;;;3.87;;
25982;SDS011;13773;48.868;10.730;2023-08-30T13:17:28;4.47;;;3.80;;
25982;SDS011;13773;48.868;10.730;2023-08-30T13:19:54;3.97;;;3.67;;
25982;SDS011;13773;48.868;10.730;2023-08-30T13:22:21;4.77;;;4.33;;
25982;SDS011;13773;48.868;10.730;2023-08-30T13:24:47;4.87;;;4.47;;
25982;SDS011;13773;48.868;10.730;2023-08-30T13:27:13;5.33;;;4.87;;
25982;SDS011;13773;48.868;10.730;2023-08-30T13:29:39;5.70;;;5.20;;
25982;SDS011;13773;48.868;10.730;2023-08-30T13:32:05;5.40;;;4.90;;
25982;SDS011;13773;48.868;10.730;2023-08-30T13:34:31;5.67;;;4.80;;
25982;SDS011;13773;48.868;10.730;2023-08-30T13:36:56;6.67;;;4.30;;
25982;SDS011;13773;48.868;10.730;2023-08-30T13:39:22;4.93;;;3.70;;
25982;SDS011;13773;48.868;10.730;2023-08-30T13:41:48;4.20;;;3.80;;
25982;SDS011;13773;48.868;10.730;2023-08-30T13:44:14;4.20;;;3.90;;
25982;SDS011;13773;48.868;10.730;2023-08-30T13:46:40;4.30;;;4.00;;
25982;SDS011;13773;48.868;10.730;2023-08-30T13:49:06;4.17;;;3.87;;
25982;SDS011;13773;48.868;10.730;2023-08-30T13:51:32;4.73;;;4.33;;
25982;SDS011;13773;48.868;10.730;2023-08-30T13:53:57;4.20;;;3.90;;
25982;SDS011;13773;48.868;10.730;2023-08-30T13:56:23;5.83;;;4.20;;
25982;SDS011;13773;48.868;10.730;2023-08-30T13:58:49;5.07;;;4.43;;
25982;SDS011;13773;48.868;10.730;2023-08-30T14:01:16;4.50;;;4.10;;
25982;SDS011;13773;48.868;10.730;2023-08-30T14:03:42;5.90;;;4.67;;
25982;SDS011;13773;48.868;10.730;2023-08-30T14:06:08;6.87;;;4.83;;
25982;SDS011;13773;48.868;10.730;2023-08-30T14:08:34;6.93;;;4.60;;
25982;SDS011;13773;48.868;10.730;2023-08-30T14:11:00;5.77;;;4.03;;
25982;SDS011;13773;48.868;10.730;2023-08-30T14:13:26;5.60;;;4.20;;
25982;SDS011;13773;48.868;10.730;2023-08-30T14:15:53;3.93;;;3.63;;
25982;SDS011;13773;48.868;10.730;2023-08-30T14:18:19;4.83;;;4.00;;
25982;SDS011;13773;48.868;10.730;2023-08-30T14:20:45;3.67;;;3.40;;
25982;SDS011;13773;48.868;10.730;2023-08-30T14:23:10;3.43;;;3.23;;